Time;durP1;ratioP1;P1;durP2;ratioP2;P2;SDS_P1;SDS_P2;PMS_P1;PMS_P2;Temp;Humidity;BMP_temperature;BMP_pressure;BME280_temperature;BME280_humidity;BME280_pressure;Samples;Min_cycle;Max_cycle;Signal;HPM_P1;HPM_P2
2021/05/19 00:01:47;;;;;;;8.77;7.93;;;;;;;9.54;91.88;100218.50;5054901;28;20049;-68
2021/05/19 00:04:14;;;;;;;9.23;8.32;;;;;;;9.55;92.40;100230.88;5055889;28;20045;-68
2021/05/19 00:06:40;;;;;;;9.73;8.45;;;;;;;9.53;91.28;100227.41;5055821;28;20426;-69
2021/05/19 00:09:09;;;;;;;9.05;8.15;;;;;;;9.49;90.94;100218.72;5054673;28;20442;-69
2021/05/19 00:11:36;;;;;;;10.38;9.38;;;;;;;9.51;92.47;100218.66;5054605;28;20103;-69
2021/05/19 00:14:06;;;;;;;9.88;8.98;;;;;;;9.51;92.28;100213.31;5055389;28;20335;-69
2021/05/19 00:16:32;;;;;;;11.13;9.50;;;;;;;9.44;93.26;100222.59;5055671;28;20048;-69
2021/05/19 00:18:59;;;;;;;10.48;9.55;;;;;;;9.43;93.11;100226.22;5039873;28;20087;-69
2021/05/19 00:21:26;;;;;;;11.82;8.57;;;;;;;9.46;91.83;100223.38;5035533;28;20046;-69
2021/05/19 00:23:53;;;;;;;10.65;9.40;;;;;;;9.40;91.71;100226.38;5034503;28;20049;-69
2021/05/19 00:26:20;;;;;;;9.45;8.55;;;;;;;9.42;91.91;100219.16;5035198;28;20099;-69
2021/05/19 00:28:50;;;;;;;12.48;9.55;;;;;;;9.49;92.12;100220.56;5035402;28;20374;-69
2021/05/19 00:31:22;;;;;;;9.50;8.63;;;;;;;9.51;91.44;100219.53;5034631;28;20049;-69
2021/05/19 00:33:49;;;;;;;10.23;9.07;;;;;;;9.47;92.35;100220.63;5035141;28;20049;-69
2021/05/19 00:36:16;;;;;;;10.27;9.23;;;;;;;9.44;91.54;100220.81;5034491;28;20055;-69
2021/05/19 00:38:43;;;;;;;12.63;9.95;;;;;;;9.46;91.96;100226.03;5035435;28;20057;-69
2021/05/19 00:41:12;;;;;;;10.70;9.60;;;;;;;9.38;91.50;100208.66;5035107;28;20049;-69
2021/05/19 00:43:40;;;;;;;11.48;10.25;;;;;;;9.40;91.14;100216.59;5035534;28;20359;-69
2021/05/19 00:46:07;;;;;;;13.50;10.68;;;;;;;9.38;91.27;100211.34;5034256;28;20049;-69
2021/05/19 00:48:35;;;;;;;11.52;10.27;;;;;;;9.40;92.04;100207.72;5035477;28;20053;-69
2021/05/19 00:51:04;;;;;;;12.13;10.73;;;;;;;9.34;91.78;100207.13;5034985;28;20053;-69
2021/05/19 00:53:31;;;;;;;12.32;11.23;;;;;;;9.28;92.47;100207.47;5035333;28;20083;-69
2021/05/19 00:55:58;;;;;;;12.18;11.05;;;;;;;9.22;92.24;100210.47;5035230;28;20100;-69
2021/05/19 00:58:25;;;;;;;13.18;11.38;;;;;;;9.12;92.17;100203.91;5035026;28;20049;-69
2021/05/19 01:00:51;;;;;;;15.07;12.32;;;;;;;9.06;93.05;100205.97;5017693;28;20392;-69
2021/05/19 01:03:18;;;;;;;12.82;11.63;;;;;;;8.97;92.53;100198.47;5035103;28;20053;-69
2021/05/19 01:05:49;;;;;;;13.65;12.35;;;;;;;8.88;91.99;100193.66;5035205;28;20053;-69
2021/05/19 01:11:10;;;;;;;14.40;13.00;;;;;;;8.79;93.34;100203.84;5034940;28;20053;-68
2021/05/19 01:13:41;;;;;;;13.70;12.30;;;;;;;8.81;93.01;100206.41;5035082;28;20149;-69
2021/05/19 01:16:08;;;;;;;14.82;13.13;;;;;;;8.72;92.56;100207.75;5034888;28;20049;-69
2021/05/19 01:18:37;;;;;;;13.25;11.95;;;;;;;8.67;92.74;100191.19;5046318;28;20315;-69
2021/05/19 01:21:04;;;;;;;14.13;12.60;;;;;;;8.62;92.37;100198.56;5054936;28;20048;-69
2021/05/19 01:23:31;;;;;;;13.52;12.20;;;;;;;8.52;92.33;100187.53;5055019;28;20049;-69
2021/05/19 01:26:01;;;;;;;13.27;11.98;;;;;;;8.47;91.89;100198.38;5054656;28;20060;-69
2021/05/19 01:28:28;;;;;;;15.93;13.38;;;;;;;8.50;93.32;100203.53;5055047;28;20049;-69
2021/05/19 01:30:55;;;;;;;14.50;13.02;;;;;;;8.42;93.05;100187.13;5054624;28;20060;-69
2021/05/19 01:33:22;;;;;;;13.50;12.15;;;;;;;8.41;92.89;100196.03;5054881;28;20060;-68
2021/05/19 01:35:48;;;;;;;14.95;12.32;;;;;;;8.39;92.87;100192.59;5054446;28;20118;-69
2021/05/19 01:38:16;;;;;;;12.98;11.77;;;;;;;8.37;92.30;100199.78;5054543;28;20099;-69
2021/05/19 01:40:43;;;;;;;14.05;12.50;;;;;;;8.32;92.39;100191.19;5054813;28;20052;-68
2021/05/19 01:43:10;;;;;;;13.32;12.02;;;;;;;8.29;92.53;100205.50;5054469;28;20346;-69
2021/05/19 01:45:37;;;;;;;14.55;12.32;;;;;;;8.23;93.47;100209.31;5054765;28;20102;-69
2021/05/19 01:48:09;;;;;;;12.77;11.52;;;;;;;8.21;91.93;100203.22;5055079;28;20045;-69
2021/05/19 01:50:35;;;;;;;12.10;10.80;;;;;;;8.20;92.08;100198.84;5057391;28;20052;-69
2021/05/19 01:53:04;;;;;;;12.50;11.30;;;;;;;8.19;92.46;100202.44;5057421;28;20107;-69
2021/05/19 01:55:31;;;;;;;13.57;12.25;;;;;;;8.19;93.14;100204.25;5058397;28;20346;-70
2021/05/19 01:57:58;;;;;;;12.38;10.85;;;;;;;8.14;92.02;100199.16;5057861;28;20041;-69
2021/05/19 02:00:27;;;;;;;11.43;10.23;;;;;;;8.13;91.76;100197.44;5058273;28;20067;-69
2021/05/19 02:03:03;;;;;;;12.48;10.60;;;;;;;8.11;91.69;100193.97;5057980;28;20385;-69
2021/05/19 02:05:31;;;;;;;13.15;10.95;;;;;;;8.07;92.46;100197.75;5058352;28;20107;-70
2021/05/19 02:07:59;;;;;;;12.20;11.02;;;;;;;8.01;92.77;100199.75;5057689;28;20496;-69
2021/05/19 02:10:26;;;;;;;11.95;10.85;;;;;;;7.97;92.56;100195.56;5058143;28;20053;-69
2021/05/19 02:12:53;;;;;;;13.20;10.88;;;;;;;8.05;92.00;100199.63;5057830;28;20060;-69
2021/05/19 02:15:20;;;;;;;12.00;10.80;;;;;;;7.97;92.15;100200.00;5058387;28;20056;-69
2021/05/19 02:17:47;;;;;;;11.75;10.55;;;;;;;7.90;91.68;100203.91;5053551;28;20099;-69
2021/05/19 02:20:19;;;;;;;11.52;10.38;;;;;;;7.88;92.50;100196.88;5038172;28;20057;-69
2021/05/19 02:22:48;;;;;;;12.63;10.77;;;;;;;7.90;92.71;100195.94;5036753;28;20053;-69
2021/05/19 02:25:16;;;;;;;11.20;10.15;;;;;;;7.86;92.84;100200.53;5037700;28;20439;-69
2021/05/19 02:27:44;;;;;;;13.32;11.63;;;;;;;7.84;93.10;100199.75;5037980;28;20354;-69
2021/05/19 02:30:12;;;;;;;12.50;10.88;;;;;;;7.85;92.93;100198.81;5036590;28;20080;-69
2021/05/19 02:32:40;;;;;;;12.40;11.10;;;;;;;7.84;93.44;100197.09;5037373;28;20052;-69
2021/05/19 02:35:08;;;;;;;13.90;10.98;;;;;;;7.83;92.96;100200.66;5037562;28;20061;-69
2021/05/19 02:37:36;;;;;;;13.82;11.30;;;;;;;7.85;93.38;100204.97;5037257;28;20320;-69
2021/05/19 02:40:05;;;;;;;13.55;11.68;;;;;;;7.83;93.16;100206.84;5036415;28;20057;-70
2021/05/19 02:42:32;;;;;;;14.40;12.13;;;;;;;7.80;93.18;100211.47;5037200;28;20054;-69
2021/05/19 02:44:59;;;;;;;15.45;13.77;;;;;;;7.88;93.86;100211.94;5037587;28;20343;-69
2021/05/19 02:47:25;;;;;;;15.98;14.27;;;;;;;7.82;94.29;100206.91;5037175;28;20053;-69
2021/05/19 02:49:52;;;;;;;14.52;12.93;;;;;;;7.82;93.66;100214.91;5037457;28;20057;-69
2021/05/19 02:52:19;;;;;;;16.77;14.40;;;;;;;7.81;93.64;100213.19;5037495;28;20052;-69
2021/05/19 02:54:46;;;;;;;15.88;14.23;;;;;;;7.80;93.91;100200.84;5037449;28;20144;-69
2021/05/19 02:57:13;;;;;;;18.17;13.35;;;;;;;7.83;94.25;100203.31;5036161;28;20489;-69
2021/05/19 02:59:39;;;;;;;15.20;13.25;;;;;;;7.84;93.83;100202.41;5035100;28;20413;-70
2021/05/19 03:02:08;;;;;;;14.75;12.93;;;;;;;7.80;93.47;100203.50;5036909;28;20092;-69
2021/05/19 03:04:35;;;;;;;17.98;14.32;;;;;;;7.81;94.11;100207.88;5037198;28;20390;-69
2021/05/19 03:07:03;;;;;;;15.55;13.48;;;;;;;7.77;93.94;100204.50;5036823;28;20052;-69
2021/05/19 03:09:30;;;;;;;15.32;13.73;;;;;;;7.81;94.34;100219.38;5036708;28;20055;-69
2021/05/19 03:11:57;;;;;;;16.25;13.52;;;;;;;7.79;94.25;100205.28;5036887;28;20405;-69
2021/05/19 03:14:23;;;;;;;14.20;12.60;;;;;;;7.86;93.81;100216.47;5036621;28;20435;-69
2021/05/19 03:16:50;;;;;;;16.05;13.35;;;;;;;7.85;93.86;100220.06;5019534;28;20045;-67
2021/05/19 03:19:16;;;;;;;19.42;13.25;;;;;;;7.87;93.83;100220.84;5053343;28;20059;-68
2021/05/19 03:21:43;;;;;;;16.13;12.70;;;;;;;7.80;93.31;100224.75;5056662;28;20053;-68
2021/05/19 03:24:10;;;;;;;17.40;13.50;;;;;;;7.81;93.85;100234.44;5056767;28;20060;-68
2021/05/19 03:26:37;;;;;;;17.67;13.07;;;;;;;7.78;93.93;100231.94;5056801;28;20044;-68
2021/05/19 03:29:04;;;;;;;18.40;12.30;;;;;;;7.77;93.42;100225.75;5055334;28;20086;-68
2021/05/19 03:31:31;;;;;;;18.30;12.85;;;;;;;7.76;93.74;100221.38;5055519;28;20048;-68
2021/05/19 03:33:58;;;;;;;18.25;12.73;;;;;;;7.77;93.58;100227.53;5056008;28;20057;-69
2021/05/19 03:36:24;;;;;;;17.65;12.98;;;;;;;7.75;93.00;100224.97;5056664;28;20052;-68
2021/05/19 03:38:51;;;;;;;16.95;12.52;;;;;;;7.78;92.97;100227.47;5056337;28;20098;-69
2021/05/19 03:41:18;;;;;;;17.27;12.55;;;;;;;7.75;92.98;100228.47;5056186;28;20052;-69
2021/05/19 03:43:44;;;;;;;21.48;12.48;;;;;;;7.72;92.70;100223.31;5055065;28;20053;-69
2021/05/19 03:46:14;;;;;;;18.52;12.00;;;;;;;7.75;92.47;100228.47;5056069;28;20084;-69
2021/05/19 03:48:42;;;;;;;18.37;12.50;;;;;;;7.71;93.42;100226.91;5055186;28;20100;-69
2021/05/19 03:51:09;;;;;;;18.92;12.23;;;;;;;7.70;93.08;100233.16;5056330;28;20063;-69
2021/05/19 03:53:36;;;;;;;20.77;12.07;;;;;;;7.67;93.02;100227.16;5055063;28;20316;-69
2021/05/19 03:56:03;;;;;;;19.55;12.07;;;;;;;7.65;92.78;100229.88;5055984;28;20127;-68
2021/05/19 03:58:29;;;;;;;19.45;12.07;;;;;;;7.70;93.39;100229.63;5055853;28;20052;-69
2021/05/19 04:00:56;;;;;;;20.95;12.52;;;;;;;7.64;92.66;100230.81;5056073;28;20053;-68
2021/05/19 04:03:23;;;;;;;18.75;12.50;;;;;;;7.67;93.08;100233.31;5056029;28;20064;-68
2021/05/19 04:05:49;;;;;;;20.77;12.43;;;;;;;7.70;93.49;100237.59;5056729;28;20052;-69
2021/05/19 04:08:16;;;;;;;20.45;11.90;;;;;;;7.68;92.93;100229.69;5055195;28;20352;-68
2021/05/19 04:10:43;;;;;;;20.20;12.05;;;;;;;7.64;92.37;100235.25;5054730;28;20446;-68
2021/05/19 04:13:09;;;;;;;17.75;11.13;;;;;;;7.67;92.96;100238.63;5055981;28;20053;-68
2021/05/19 04:15:36;;;;;;;17.38;11.43;;;;;;;7.61;92.67;100239.78;5056093;28;20059;-69
2021/05/19 04:18:04;;;;;;;19.13;11.00;;;;;;;7.66;92.39;100236.03;5049658;28;20053;-68
2021/05/19 04:20:35;;;;;;;17.33;10.40;;;;;;;7.65;92.24;100235.19;5036049;28;20055;-69
2021/05/19 04:23:02;;;;;;;22.98;10.85;;;;;;;7.66;92.61;100236.91;5035751;28;20053;-69
2021/05/19 04:25:29;;;;;;;21.85;10.85;;;;;;;7.64;92.26;100236.13;5035724;28;20095;-69
2021/05/19 04:27:56;;;;;;;15.32;9.98;;;;;;;7.67;92.09;100238.63;5035331;28;20328;-69
2021/05/19 04:30:23;;;;;;;16.27;9.57;;;;;;;7.65;92.73;100240.50;5035651;28;20057;-69
2021/05/19 04:32:53;;;;;;;16.00;9.43;;;;;;;7.68;92.11;100231.53;5035538;28;20057;-69
2021/05/19 04:35:20;;;;;;;20.65;9.30;;;;;;;7.69;91.82;100235.91;5035074;28;20072;-69
2021/05/19 04:37:46;;;;;;;15.27;9.00;;;;;;;7.66;92.07;100236.03;5035393;28;20048;-69
2021/05/19 04:40:13;;;;;;;19.88;9.48;;;;;;;7.68;92.54;100239.50;5018107;28;20393;-69
2021/05/19 04:42:41;;;;;;;14.82;9.00;;;;;;;7.68;91.76;100240.34;5035234;28;20054;-68
2021/05/19 04:45:08;;;;;;;15.55;8.18;;;;;;;7.71;91.41;100237.53;5035298;28;20382;-68
2021/05/19 04:47:35;;;;;;;13.55;8.13;;;;;;;7.74;92.25;100242.69;5035285;28;20050;-69
2021/05/19 04:50:04;;;;;;;19.60;7.97;;;;;;;7.73;91.61;100243.63;5035539;28;20115;-68
2021/05/19 04:52:30;;;;;;;18.95;7.93;;;;;;;7.77;92.07;100241.69;5035194;28;20045;-69
2021/05/19 04:55:00;;;;;;;20.00;7.93;;;;;;;7.82;93.02;100244.13;5034367;28;20140;-68
2021/05/19 04:57:26;;;;;;;11.25;7.35;;;;;;;7.84;91.83;100248.44;5035398;28;20076;-68
2021/05/19 04:59:53;;;;;;;13.55;8.02;;;;;;;7.86;92.29;100249.22;5035381;28;20053;-69
2021/05/19 05:02:23;;;;;;;12.35;7.63;;;;;;;7.90;92.36;100251.72;5035262;28;20053;-69
2021/05/19 05:04:52;;;;;;;;;;;;;;;7.93;92.32;100256.88;5034826;28;20108;-68
2021/05/19 05:07:19;;;;;;;12.05;6.97;;;;;;;7.91;91.66;100256.97;5034192;28;19925;-68
2021/05/19 05:09:47;;;;;;;13.07;7.63;;;;;;;7.94;91.02;100256.81;5034788;28;20398;-68
2021/05/19 05:12:15;;;;;;;10.77;6.72;;;;;;;7.95;91.23;100260.34;5035061;28;20080;-70
2021/05/19 05:14:42;;;;;;;12.40;7.93;;;;;;;7.97;91.68;100266.44;5035152;28;20129;-69
2021/05/19 05:17:13;;;;;;;17.67;7.43;;;;;;;7.98;92.05;100263.72;5035049;28;20045;-68
2021/05/19 05:19:40;;;;;;;19.45;8.07;;;;;;;8.00;91.97;100268.94;5035091;28;20053;-68
2021/05/19 05:22:08;;;;;;;11.10;7.07;;;;;;;8.06;91.36;100273.13;5034835;28;20111;-70
2021/05/19 05:24:35;;;;;;;12.98;7.13;;;;;;;8.11;91.56;100271.06;5037916;28;20053;-68
2021/05/19 05:27:03;;;;;;;12.00;6.55;;;;;;;8.14;91.06;100270.94;5038813;28;20431;-69
2021/05/19 05:29:30;;;;;;;10.18;5.82;;;;;;;8.18;91.00;100263.66;5038920;28;20064;-69
2021/05/19 05:31:57;;;;;;;12.30;5.85;;;;;;;8.21;90.61;100267.03;5038881;28;20049;-69
2021/05/19 05:34:24;;;;;;;10.18;5.78;;;;;;;8.25;89.36;100260.66;5038419;28;20053;-69
2021/05/19 05:36:51;;;;;;;16.40;5.78;;;;;;;8.29;88.87;100256.03;5038656;28;20347;-69
2021/05/19 05:39:18;;;;;;;15.13;6.47;;;;;;;8.35;89.85;100260.16;5038798;28;20048;-69
2021/05/19 05:41:45;;;;;;;12.15;5.57;;;;;;;8.45;90.50;100255.25;5038710;28;20053;-69
2021/05/19 05:44:12;;;;;;;14.35;5.35;;;;;;;8.50;88.92;100255.88;5038424;28;20434;-69
2021/05/19 05:46:39;;;;;;;10.68;5.32;;;;;;;8.65;88.19;100265.75;5038539;28;20447;-69
2021/05/19 05:49:07;;;;;;;11.23;5.03;;;;;;;8.73;88.00;100269.84;5038405;28;20050;-69
2021/05/19 05:51:35;;;;;;;10.00;4.70;;;;;;;8.83;88.13;100258.63;5038280;28;20384;-68
2021/05/19 05:54:02;;;;;;;18.30;4.93;;;;;;;8.89;87.14;100265.41;5038366;28;20096;-69
2021/05/19 05:56:29;;;;;;;14.80;4.95;;;;;;;8.92;86.39;100267.06;5038407;28;20049;-69
2021/05/19 05:58:55;;;;;;;8.77;5.05;;;;;;;9.01;87.58;100268.38;5038686;28;20049;-69
2021/05/19 06:01:22;;;;;;;12.75;4.45;;;;;;;9.09;87.46;100269.72;5038777;28;20099;-69
2021/05/19 06:03:49;;;;;;;9.60;3.80;;;;;;;9.23;86.78;100268.09;5038767;28;20389;-70
2021/05/19 06:06:15;;;;;;;7.68;3.80;;;;;;;9.33;83.88;100273.81;5038435;28;20057;-69
2021/05/19 06:08:42;;;;;;;8.20;3.53;;;;;;;9.46;83.75;100273.97;5037192;28;20486;-69
2021/05/19 06:11:09;;;;;;;12.77;3.75;;;;;;;9.51;83.03;100266.59;5038506;28;20407;-69
2021/05/19 06:13:35;;;;;;;8.82;3.83;;;;;;;9.57;82.72;100274.25;5037776;28;20054;-69
2021/05/19 06:16:03;;;;;;;7.57;3.30;;;;;;;9.68;83.53;100260.34;5035956;28;20065;-70
2021/05/19 06:18:29;;;;;;;8.18;3.33;;;;;;;9.76;83.33;100263.44;5048207;28;20071;-70
2021/05/19 06:20:56;;;;;;;11.00;3.67;;;;;;;9.82;81.25;100267.59;5057758;28;20064;-70
2021/05/19 06:23:23;;;;;;;5.72;2.83;;;;;;;9.86;80.26;100269.09;5057968;28;20052;-70
2021/05/19 06:25:50;;;;;;;9.27;2.40;;;;;;;9.96;79.69;100271.28;5057444;28;20048;-70
2021/05/19 06:28:17;;;;;;;9.73;2.47;;;;;;;9.96;80.48;100281.94;5031141;28;20049;-69
2021/05/19 06:30:43;;;;;;;17.10;4.00;;;;;;;10.06;79.60;100283.13;5046284;28;20057;-71
2021/05/19 06:33:10;;;;;;;11.38;2.40;;;;;;;10.04;78.87;100288.53;5046993;28;20438;-71
2021/05/19 06:35:38;;;;;;;12.90;3.28;;;;;;;10.02;79.78;100273.59;5047709;28;20466;-71
2021/05/19 06:38:04;;;;;;;11.10;2.88;;;;;;;10.11;81.50;100286.41;5057504;28;20431;-74
2021/05/19 06:40:31;;;;;;;10.68;2.80;;;;;;;10.06;79.67;100285.78;5056082;28;20328;-70
2021/05/19 06:42:58;;;;;;;10.07;2.28;;;;;;;10.02;79.24;100287.75;5057474;28;20102;-71
2021/05/19 06:45:25;;;;;;;9.52;2.60;;;;;;;10.10;79.16;100284.69;5057468;28;20052;-72
2021/05/19 06:47:52;;;;;;;11.27;2.88;;;;;;;10.19;79.98;100284.13;5052427;28;20061;-70
2021/05/19 06:50:19;;;;;;;9.82;2.63;;;;;;;10.22;79.50;100298.25;5048357;28;20444;-69
2021/05/19 06:52:46;;;;;;;8.60;2.33;;;;;;;10.23;79.42;100287.47;5056275;28;20052;-68
2021/05/19 06:55:14;;;;;;;10.02;2.97;;;;;;;10.25;78.39;100296.25;5039103;28;20084;-69
2021/05/19 06:57:40;;;;;;;11.27;3.03;;;;;;;10.34;78.03;100294.88;5038809;28;20045;-69
2021/05/19 07:00:08;;;;;;;9.60;2.72;;;;;;;10.33;78.77;100290.47;5020939;28;20058;-68
2021/05/19 07:02:37;;;;;;;10.60;2.50;;;;;;;10.31;79.89;100293.22;5048697;28;20098;-69
2021/05/19 07:05:08;;;;;;;15.60;3.55;;;;;;;10.40;78.56;100297.19;5049512;28;20053;-69
2021/05/19 07:07:35;;;;;;;9.52;2.47;;;;;;;10.29;77.82;100296.94;5047581;28;20428;-70
2021/05/19 07:10:03;;;;;;;14.52;2.90;;;;;;;10.40;79.27;100297.19;5050704;28;20045;-70
2021/05/19 07:12:30;;;;;;;7.38;2.47;;;;;;;10.37;77.97;100299.16;5043953;28;20457;-69
2021/05/19 07:15:00;;;;;;;8.65;2.78;;;;;;;10.40;78.71;100297.19;5045287;28;20048;-71
2021/05/19 07:17:27;;;;;;;12.43;2.30;;;;;;;10.34;76.89;100294.88;5045947;28;20422;-76
2021/05/19 07:19:54;;;;;;;11.73;2.70;;;;;;;10.37;78.21;100292.03;5047238;28;20052;-75
2021/05/19 07:22:25;;;;;;;11.75;2.50;;;;;;;10.45;78.10;100292.47;5040406;28;20060;-74
2021/05/19 07:24:53;;;;;;;11.32;2.45;;;;;;;10.49;78.62;100289.63;5050145;28;20667;-77
2021/05/19 07:27:20;;;;;;;13.25;3.15;;;;;;;10.67;78.86;100288.53;5046266;28;20049;-71
2021/05/19 07:29:46;;;;;;;9.93;2.22;;;;;;;10.72;77.78;100290.91;5045792;28;20053;-70
2021/05/19 07:32:13;;;;;;;10.20;2.67;;;;;;;10.74;78.44;100297.06;5043839;28;20367;-73
2021/05/19 07:34:40;;;;;;;10.23;2.50;;;;;;;10.75;78.12;100296.09;5044787;28;20131;-72
2021/05/19 07:37:07;;;;;;;10.93;2.08;;;;;;;10.83;78.67;100300.97;5044207;28;20061;-73
2021/05/19 07:39:35;;;;;;;11.35;2.85;;;;;;;10.86;78.74;100301.63;5046596;28;20116;-71
2021/05/19 07:42:05;;;;;;;15.82;2.83;;;;;;;10.89;77.75;100297.91;5044251;28;20051;-70
2021/05/19 07:44:32;;;;;;;;;;;;;;;11.13;77.95;100300.06;5044032;28;20052;-70
2021/05/19 07:46:58;;;;;;;11.73;2.05;;;;;;;11.26;76.09;100301.03;5045495;28;20312;-70
2021/05/19 07:49:24;;;;;;;11.43;2.50;;;;;;;11.45;76.88;100307.91;5044827;28;20053;-70
2021/05/19 07:51:50;;;;;;;10.65;2.80;;;;;;;11.18;76.45;100276.63;5042801;28;20087;-70
2021/05/19 07:54:24;;;;;;;10.25;2.22;;;;;;;11.21;76.34;100303.13;5045592;28;20053;-70
2021/05/19 07:59:24;;;;;;;8.05;2.25;;;;;;;11.22;77.68;100301.31;5044547;28;20427;-70
2021/05/19 08:02:03;;;;;;;11.35;2.40;;;;;;;11.27;77.61;100318.78;5044780;28;20040;-71
2021/05/19 08:04:34;;;;;;;11.95;2.80;;;;;;;11.30;76.77;100306.16;5045341;28;20060;-72
2021/05/19 08:06:59;;;;;;;;;;;;;;;11.30;76.40;100303.50;5044579;28;20030;-69
2021/05/19 08:09:25;;;;;;;11.48;2.05;;;;;;;11.31;76.74;100298.06;5045753;28;19975;-72
2021/05/19 08:11:50;;;;;;;7.72;1.85;;;;;;;11.32;76.38;100298.94;5045710;28;20308;-71
2021/05/19 08:14:16;;;;;;;13.50;2.63;;;;;;;11.39;75.89;100292.25;5044019;28;20044;-71
2021/05/19 08:16:42;;;;;;;16.15;2.55;;;;;;;11.64;75.89;100298.72;5045152;28;20044;-71
2021/05/19 08:19:08;;;;;;;10.77;1.85;;;;;;;11.82;74.75;100300.22;5045947;28;20041;-71
2021/05/19 08:21:35;;;;;;;10.75;1.95;;;;;;;11.96;73.99;100298.47;5046335;28;20055;-71
2021/05/19 08:24:02;;;;;;;8.93;1.55;;;;;;;11.96;72.21;100301.16;5042974;28;20067;-71
2021/05/19 08:26:29;;;;;;;13.32;2.42;;;;;;;11.92;74.33;100302.28;5044978;28;20102;-71
2021/05/19 08:28:56;;;;;;;7.40;2.08;;;;;;;11.94;73.80;100295.06;5045631;28;20394;-71
2021/05/19 08:31:23;;;;;;;13.43;2.25;;;;;;;11.98;73.62;100301.06;5042934;28;20159;-71
2021/05/19 08:34:07;;;;;;;12.00;2.20;;;;;;;12.03;72.04;100294.47;5044443;28;20712;-71
2021/05/19 08:36:34;;;;;;;5.10;1.33;;;;;;;12.08;72.17;100296.84;5043086;28;20053;-71
2021/05/19 08:39:01;;;;;;;8.32;1.90;;;;;;;12.27;72.69;100288.47;5045799;28;20048;-72
2021/05/19 08:41:27;;;;;;;14.27;2.40;;;;;;;12.58;71.87;100289.09;5043393;28;20042;-71
2021/05/19 08:43:54;;;;;;;8.82;1.48;;;;;;;12.72;69.27;100298.00;5043919;28;20445;-72
2021/05/19 08:46:21;;;;;;;8.27;2.00;;;;;;;12.64;68.98;100295.84;5046177;28;20044;-71
2021/05/19 08:49:00;;;;;;;13.88;1.77;;;;;;;12.63;68.86;100281.63;5043669;28;20427;-73
2021/05/19 08:51:27;;;;;;;9.27;1.60;;;;;;;12.70;68.75;100281.19;5043667;28;20061;-75
2021/05/19 08:53:54;;;;;;;8.38;1.30;;;;;;;12.93;69.13;100276.94;5044667;28;20055;-75
2021/05/19 08:56:22;;;;;;;13.80;1.90;;;;;;;13.10;68.68;100275.78;5045749;28;20045;-70
2021/05/19 08:58:50;;;;;;;13.50;1.80;;;;;;;13.32;67.72;100284.97;5039449;28;20055;-70
2021/05/19 09:01:21;;;;;;;5.70;1.63;;;;;;;13.38;66.77;100270.25;5048377;28;20045;-69
2021/05/19 09:04:01;;;;;;;;;;;;;;;13.50;67.39;100271.28;5048861;28;20111;-71
2021/05/19 09:06:34;;;;;;;6.10;1.42;;;;;;;13.24;66.69;100256.03;5049545;28;20207;-72
2021/05/19 09:09:19;;;;;;;10.70;2.38;;;;;;;13.20;66.45;100272.44;5047517;28;20046;-71
2021/05/19 09:12:14;;;;;;;10.35;1.92;;;;;;;13.39;67.34;100269.28;5049615;28;20312;-71
2021/05/19 09:14:59;;;;;;;7.20;1.50;;;;;;;13.54;67.09;100260.22;5045718;28;20056;-71
2021/05/19 09:17:38;;;;;;;7.55;1.63;;;;;;;13.42;66.19;100267.25;5047114;28;20049;-72
2021/05/19 09:20:10;;;;;;;8.98;1.52;;;;;;;13.40;66.49;100261.16;5046901;28;20045;-72
2021/05/19 09:22:38;;;;;;;14.02;1.80;;;;;;;13.44;66.82;100257.28;5047823;28;20430;-72
2021/05/19 09:25:14;;;;;;;7.45;1.40;;;;;;;13.46;65.09;100256.34;5047276;28;20492;-72
2021/05/19 09:27:43;;;;;;;9.70;1.95;;;;;;;13.29;64.86;100255.72;5047581;28;20041;-72
2021/05/19 09:30:10;;;;;;;9.77;1.88;;;;;;;13.52;64.79;100262.13;5048638;28;20049;-71
2021/05/19 09:32:39;;;;;;;7.57;1.60;;;;;;;13.53;63.50;100263.00;5048200;28;20099;-72
2021/05/19 09:35:08;;;;;;;11.95;1.92;;;;;;;13.35;63.24;100260.63;5049463;28;20067;-76
2021/05/19 09:37:35;;;;;;;9.25;1.85;;;;;;;13.18;62.95;100254.66;5047404;28;20103;-74
2021/05/19 09:40:04;;;;;;;10.23;1.67;;;;;;;13.16;64.52;100251.22;5046556;28;20120;-72
2021/05/19 09:42:37;;;;;;;11.82;2.03;;;;;;;13.25;62.97;100257.72;5047145;28;20053;-73
2021/05/19 09:45:17;;;;;;;10.77;1.80;;;;;;;13.21;64.46;100258.94;5051658;28;20045;-74
2021/05/19 09:47:45;;;;;;;12.15;2.47;;;;;;;13.16;63.75;100256.59;5050951;28;20072;-73
2021/05/19 09:50:18;;;;;;;8.45;1.63;;;;;;;13.39;64.03;100261.25;5046567;28;20045;-72
2021/05/19 09:53:01;;;;;;;14.05;2.22;;;;;;;13.43;64.03;100252.03;5048548;28;20045;-73
2021/05/19 09:55:28;;;;;;;10.02;1.65;;;;;;;13.27;65.56;100252.28;5048315;28;20092;-71
2021/05/19 09:57:55;;;;;;;10.13;1.75;;;;;;;13.15;67.17;100265.59;5050047;28;20046;-74
2021/05/19 10:00:24;;;;;;;8.52;1.70;;;;;;;13.07;67.64;100257.22;5049003;28;20111;-72
2021/05/19 10:02:52;;;;;;;10.63;1.85;;;;;;;13.18;67.00;100260.00;5042591;28;20045;-71
2021/05/19 10:05:26;;;;;;;8.48;1.38;;;;;;;13.06;67.26;100243.94;5048790;28;20057;-70
2021/05/19 10:07:54;;;;;;;7.30;1.38;;;;;;;13.39;66.73;100256.75;5046223;28;20431;-71
2021/05/19 10:10:25;;;;;;;3.75;1.25;;;;;;;13.63;64.59;100255.13;5048197;28;20115;-72
2021/05/19 10:12:54;;;;;;;6.78;1.30;;;;;;;13.74;62.86;100243.63;5047678;28;20339;-73
2021/05/19 10:15:27;;;;;;;3.53;0.93;;;;;;;14.08;61.18;100236.63;5046625;28;20053;-74
2021/05/19 10:18:07;;;;;;;3.40;0.90;;;;;;;14.21;60.40;100247.28;5047757;28;20461;-74
2021/05/19 10:20:38;;;;;;;5.90;0.97;;;;;;;14.20;60.59;100248.28;5052337;28;20045;-76
2021/05/19 10:23:14;;;;;;;2.28;0.68;;;;;;;14.25;59.03;100248.78;5052184;28;20277;-71
2021/05/19 10:25:42;;;;;;;4.72;1.00;;;;;;;14.43;59.27;100236.78;5040634;28;20053;-71
2021/05/19 10:28:14;;;;;;;3.40;1.05;;;;;;;14.66;59.95;100243.91;5053019;28;20063;-72
2021/05/19 10:30:54;;;;;;;5.70;0.90;;;;;;;14.77;59.60;100235.03;5048912;28;20051;-72
2021/05/19 10:33:27;;;;;;;4.13;0.82;;;;;;;14.82;58.56;100249.97;5054019;28;20068;-73
2021/05/19 10:35:57;;;;;;;4.82;1.13;;;;;;;14.81;57.92;100243.72;5049938;28;20055;-71
2021/05/19 10:38:28;;;;;;;;;;;;;;;14.86;58.26;100246.06;5043210;28;20061;-73
2021/05/19 10:41:02;;;;;;;4.72;1.05;;;;;;;15.14;58.00;100235.84;5037156;28;19925;-72
2021/05/19 10:43:49;;;;;;;4.40;1.42;;;;;;;15.31;58.32;100223.75;5048480;28;20128;-72
2021/05/19 10:50:05;;;;;;;3.08;1.15;;;;;;;15.70;57.73;100217.94;5042255;28;20050;-75
2021/05/19 11:01:10;;;;;;;2.70;0.80;;;;;;;15.19;56.70;100225.53;5057092;28;20053;-73
2021/05/19 11:03:41;;;;;;;3.90;0.88;;;;;;;15.02;58.66;100232.25;5048347;28;20366;-74
2021/05/19 11:06:10;;;;;;;5.38;1.20;;;;;;;14.90;59.44;100231.41;5052675;28;20057;-72
2021/05/19 11:08:39;;;;;;;4.82;1.10;;;;;;;14.80;59.18;100226.75;5045514;28;20048;-71
2021/05/19 11:11:20;;;;;;;2.08;0.80;;;;;;;14.64;60.70;100232.44;5045654;28;20041;-73
2021/05/19 11:16:43;;;;;;;1.95;0.75;;;;;;;14.39;60.92;100230.78;5052954;28;20669;-71
2021/05/19 11:19:25;;;;;;;1.77;0.77;;;;;;;14.28;61.34;100233.41;5049626;28;20098;-73
2021/05/19 11:22:00;;;;;;;4.07;0.82;;;;;;;14.09;61.51;100216.88;5037117;28;20091;-73
2021/05/19 11:24:27;;;;;;;2.58;0.90;;;;;;;13.83;60.28;100226.84;5029740;28;20100;-75
2021/05/19 11:26:54;;;;;;;3.28;1.00;;;;;;;13.79;61.08;100225.38;5045366;28;20464;-74
2021/05/19 11:29:22;;;;;;;3.47;0.93;;;;;;;13.88;61.47;100231.91;5045470;28;20045;-72
2021/05/19 11:31:51;;;;;;;4.13;0.93;;;;;;;13.61;61.92;100227.59;5044778;28;20053;-71
2021/05/19 11:34:21;;;;;;;5.63;1.13;;;;;;;13.43;62.31;100231.47;5047167;28;20059;-73
2021/05/19 11:36:54;;;;;;;3.15;1.05;;;;;;;13.51;62.68;100232.75;5045193;28;20056;-73
2021/05/19 11:39:38;;;;;;;2.17;1.13;;;;;;;13.52;63.59;100229.94;5044216;28;20128;-73
2021/05/19 11:42:27;;;;;;;4.53;0.93;;;;;;;13.78;63.33;100226.34;5044767;28;20045;-71
2021/05/19 11:44:55;;;;;;;6.60;0.90;;;;;;;13.48;62.93;100230.28;5044581;28;20049;-70
2021/05/19 11:47:31;;;;;;;2.97;0.90;;;;;;;13.69;63.48;100215.31;5036181;28;20355;-73
2021/05/19 11:50:23;;;;;;;6.32;1.02;;;;;;;13.89;61.73;100221.03;5036735;28;20049;-70